Time;durP1;ratioP1;P1;durP2;ratioP2;P2;SDS_P1;SDS_P2;PMS_P1;PMS_P2;Temp;Humidity;BMP_temperature;BMP_pressure;BME280_temperature;BME280_humidity;BME280_pressure;Samples;Min_cycle;Max_cycle;Signal;HPM_P1;HPM_P2
2023/12/10 00:02:05;;;;;;;13.73;3.67;;;10.10;99.90;;;;;;5071512;28;20556;-69
2023/12/10 00:04:30;;;;;;;16.83;4.83;;;10.00;99.90;;;;;;5071433;28;20185;-70
2023/12/10 00:06:56;;;;;;;29.43;5.57;;;10.00;99.90;;;;;;5071749;28;20408;-69
2023/12/10 00:09:22;;;;;;;27.40;4.20;;;10.10;99.90;;;;;;5071135;28;20261;-68
2023/12/10 00:11:47;;;;;;;20.90;3.97;;;10.10;99.90;;;;;;5071267;28;20208;-69
2023/12/10 00:14:13;;;;;;;20.60;5.07;;;10.20;99.90;;;;;;5071418;28;20216;-69
2023/12/10 00:16:38;;;;;;;19.40;3.50;;;10.30;99.90;;;;;;5071434;28;20223;-69
2023/12/10 00:19:04;;;;;;;11.63;3.03;;;10.30;99.90;;;;;;5071394;28;20174;-68
2023/12/10 00:21:29;;;;;;;23.80;5.30;;;10.30;99.90;;;;;;5071542;28;20194;-69
2023/12/10 00:23:55;;;;;;;18.03;3.53;;;10.40;99.90;;;;;;5071405;28;20198;-69
2023/12/10 00:26:20;;;;;;;22.73;3.87;;;10.40;99.90;;;;;;5071459;28;20166;-70
2023/12/10 00:28:46;;;;;;;22.13;5.33;;;10.40;99.90;;;;;;5071330;28;20237;-68
2023/12/10 00:31:12;;;;;;;14.17;4.53;;;10.50;99.90;;;;;;5071354;28;20178;-68
2023/12/10 00:33:37;;;;;;;14.40;3.60;;;10.60;99.90;;;;;;5071269;28;20170;-69
2023/12/10 00:36:03;;;;;;;15.90;3.67;;;10.50;99.90;;;;;;5071279;28;20182;-69
2023/12/10 00:38:29;;;;;;;12.90;3.30;;;10.50;99.90;;;;;;5071135;28;20166;-69
2023/12/10 00:40:54;;;;;;;16.10;5.03;;;10.50;99.90;;;;;;5071225;28;20193;-70
2023/12/10 00:43:20;;;;;;;34.70;4.47;;;10.50;99.90;;;;;;5071209;28;20198;-69
2023/12/10 00:45:45;;;;;;;21.07;4.33;;;10.50;99.90;;;;;;5071363;28;20169;-69
2023/12/10 00:48:12;;;;;;;15.43;2.90;;;10.60;99.90;;;;;;5071058;28;20262;-69
2023/12/10 00:50:38;;;;;;;12.50;3.70;;;10.50;99.90;;;;;;5071173;28;20178;-69
2023/12/10 00:53:04;;;;;;;20.03;4.50;;;10.60;99.90;;;;;;5074324;28;20404;-69
2023/12/10 00:55:29;;;;;;;14.20;3.50;;;10.50;99.90;;;;;;5074772;28;20174;-68
2023/12/10 00:57:55;;;;;;;26.60;5.47;;;10.60;99.90;;;;;;5074574;28;20163;-69
2023/12/10 01:00:21;;;;;;;15.30;3.73;;;10.60;99.90;;;;;;5074605;28;20189;-70
2023/12/10 01:02:48;;;;;;;19.63;4.23;;;10.60;99.90;;;;;;5074351;28;20198;-70
2023/12/10 01:05:13;;;;;;;18.87;4.20;;;10.50;99.90;;;;;;5074563;28;20773;-69
2023/12/10 01:07:39;;;;;;;15.20;3.70;;;10.60;99.90;;;;;;5073209;28;20419;-70
2023/12/10 01:10:05;;;;;;;17.63;3.43;;;10.60;99.90;;;;;;5074086;28;20173;-69
2023/12/10 01:12:37;;;;;;;24.77;5.07;;;10.60;99.90;;;;;;5074411;28;20166;-68
2023/12/10 01:15:08;;;;;;;10.87;3.70;;;10.60;99.90;;;;;;5074411;28;20163;-69
2023/12/10 01:17:34;;;;;;;11.13;3.90;;;10.60;99.90;;;;;;5074364;28;20412;-69
2023/12/10 01:20:00;;;;;;;14.67;5.03;;;10.60;99.90;;;;;;5074001;28;20922;-70
2023/12/10 01:22:26;;;;;;;20.43;4.47;;;10.60;99.90;;;;;;5074015;28;20165;-69
2023/12/10 01:24:54;;;;;;;15.27;3.60;;;10.60;99.90;;;;;;5074081;28;20452;-70
2023/12/10 01:27:20;;;;;;;13.17;3.57;;;10.70;99.90;;;;;;5074120;28;20245;-69
2023/12/10 01:29:45;;;;;;;17.23;4.33;;;10.60;99.90;;;;;;5073894;28;20535;-69
2023/12/10 01:32:11;;;;;;;18.57;4.03;;;10.70;99.90;;;;;;5073629;28;20543;-69
2023/12/10 01:34:37;;;;;;;14.20;3.30;;;10.60;99.90;;;;;;5074031;28;20205;-69
2023/12/10 01:37:03;;;;;;;12.50;3.80;;;10.70;99.90;;;;;;5073868;28;20173;-69
2023/12/10 01:39:30;;;;;;;23.27;5.00;;;10.70;99.90;;;;;;5073592;28;20407;-69
2023/12/10 01:41:56;;;;;;;16.30;3.40;;;10.70;99.90;;;;;;5073639;28;20435;-69
2023/12/10 01:44:22;;;;;;;19.10;3.00;;;10.70;99.90;;;;;;5073731;28;20847;-69
2023/12/10 01:46:48;;;;;;;20.33;3.63;;;10.70;99.90;;;;;;5073667;28;20166;-70
2023/12/10 01:49:15;;;;;;;13.80;4.07;;;10.70;99.90;;;;;;5073564;28;20405;-68
2023/12/10 01:51:43;;;;;;;13.00;3.20;;;10.60;99.90;;;;;;5073586;28;20189;-68
2023/12/10 01:54:19;;;;;;;10.47;2.67;;;10.60;99.90;;;;;;5073515;28;20431;-68
2023/12/10 01:56:45;;;;;;;12.17;3.57;;;10.60;99.90;;;;;;5073681;28;20498;-69
2023/12/10 01:59:10;;;;;;;15.80;4.43;;;10.60;99.90;;;;;;5073426;28;20499;-69
2023/12/10 02:01:36;;;;;;;14.23;4.07;;;10.60;99.90;;;;;;5073335;28;20269;-69
2023/12/10 02:04:05;;;;;;;22.53;3.20;;;10.70;99.90;;;;;;5072378;28;20205;-70
2023/12/10 02:06:31;;;;;;;8.10;3.43;;;10.70;99.90;;;;;;5072111;28;20416;-69
2023/12/10 02:08:57;;;;;;;22.47;4.47;;;10.70;99.90;;;;;;5071907;28;20927;-69
2023/12/10 02:11:22;;;;;;;14.73;2.10;;;10.70;99.90;;;;;;5073244;28;20685;-70
2023/12/10 02:13:49;;;;;;;13.67;3.43;;;10.60;99.90;;;;;;5072881;28;21024;-69
2023/12/10 02:16:15;;;;;;;10.47;4.33;;;10.60;99.90;;;;;;5073146;28;20438;-69
2023/12/10 02:18:41;;;;;;;13.13;2.90;;;10.60;99.90;;;;;;5071587;28;20413;-69
2023/12/10 02:21:07;;;;;;;17.00;4.43;;;10.50;99.90;;;;;;5072966;28;20826;-70
2023/12/10 02:23:49;;;;;;;12.10;3.80;;;10.60;99.90;;;;;;5072884;28;20684;-69
2023/12/10 02:26:15;;;;;;;8.23;2.70;;;10.50;99.90;;;;;;5073061;28;20462;-69
2023/12/10 02:28:41;;;;;;;9.07;3.50;;;10.50;99.90;;;;;;5072741;28;20405;-70
2023/12/10 02:31:07;;;;;;;11.17;2.83;;;10.50;99.90;;;;;;5072749;28;20190;-70
2023/12/10 02:33:32;;;;;;;8.80;2.90;;;10.50;99.90;;;;;;5072672;28;20465;-69
2023/12/10 02:35:58;;;;;;;10.10;3.53;;;10.50;99.90;;;;;;5072728;28;20178;-69
2023/12/10 02:38:23;;;;;;;14.60;3.07;;;10.50;99.90;;;;;;5072582;28;20178;-69
2023/12/10 02:40:49;;;;;;;7.73;2.57;;;10.50;99.90;;;;;;5072635;28;20232;-69
2023/12/10 02:43:16;;;;;;;13.13;2.83;;;10.40;99.90;;;;;;5072219;28;20193;-70
2023/12/10 02:45:42;;;;;;;16.23;3.10;;;10.40;99.90;;;;;;5072600;28;20158;-69
2023/12/10 02:48:08;;;;;;;15.43;4.13;;;10.30;99.90;;;;;;5072358;28;20412;-69
2023/12/10 02:50:33;;;;;;;11.33;2.80;;;10.30;99.90;;;;;;5072695;28;20412;-68
2023/12/10 02:52:59;;;;;;;23.20;2.50;;;10.30;99.90;;;;;;5072203;28;20198;-69
2023/12/10 02:55:24;;;;;;;18.53;3.17;;;10.40;99.90;;;;;;5071163;28;20182;-68
2023/12/10 02:57:50;;;;;;;11.77;2.53;;;10.40;99.90;;;;;;5072392;28;20596;-69
2023/12/10 03:00:16;;;;;;;11.57;2.70;;;10.40;99.90;;;;;;5072132;28;20190;-69
2023/12/10 03:02:42;;;;;;;9.07;2.67;;;10.40;99.90;;;;;;5072114;28;20181;-69
2023/12/10 03:05:08;;;;;;;11.50;2.50;;;10.40;99.90;;;;;;5072469;28;20544;-69
2023/12/10 03:07:33;;;;;;;8.27;3.00;;;10.40;99.90;;;;;;5072273;28;20415;-69
2023/12/10 03:09:59;;;;;;;10.63;2.20;;;10.40;99.90;;;;;;5072011;28;20166;-70
2023/12/10 03:12:25;;;;;;;13.07;2.43;;;10.30;99.90;;;;;;5072051;28;20170;-68
2023/12/10 03:14:50;;;;;;;26.47;4.47;;;10.30;99.90;;;;;;5071859;28;20675;-69
2023/12/10 03:17:16;;;;;;;13.60;3.50;;;10.30;99.90;;;;;;5072118;28;20621;-69
2023/12/10 03:19:41;;;;;;;8.87;2.40;;;10.20;99.90;;;;;;5071924;28;20175;-70
2023/12/10 03:22:07;;;;;;;15.07;2.90;;;10.10;99.90;;;;;;5071861;28;20201;-69
2023/12/10 03:24:33;;;;;;;15.80;4.00;;;10.00;99.90;;;;;;5071902;28;20206;-69
2023/12/10 03:26:58;;;;;;;13.30;3.47;;;10.00;99.90;;;;;;5072023;28;20170;-69
2023/12/10 03:29:24;;;;;;;7.77;2.77;;;10.00;99.90;;;;;;5071742;28;20205;-69
2023/12/10 03:31:49;;;;;;;11.00;2.63;;;9.90;99.90;;;;;;5071667;28;20260;-69
2023/12/10 03:34:15;;;;;;;13.53;3.17;;;9.90;99.90;;;;;;5071938;28;20166;-69
2023/12/10 03:36:40;;;;;;;8.80;2.80;;;9.90;99.90;;;;;;5071947;28;20166;-69
2023/12/10 03:39:06;;;;;;;16.73;3.10;;;9.90;99.90;;;;;;5071604;28;20166;-70
2023/12/10 03:41:31;;;;;;;8.63;2.80;;;10.00;99.90;;;;;;5071664;28;20194;-69
2023/12/10 03:43:57;;;;;;;10.03;2.93;;;10.00;99.90;;;;;;5071679;28;20294;-69
2023/12/10 03:46:22;;;;;;;15.53;3.00;;;9.90;99.90;;;;;;5071799;28;20197;-69
2023/12/10 03:48:48;;;;;;;14.27;3.37;;;9.80;99.90;;;;;;5071538;28;20194;-70
2023/12/10 03:51:14;;;;;;;8.27;3.00;;;9.80;99.90;;;;;;5070342;28;20229;-69
2023/12/10 03:53:39;;;;;;;24.27;3.20;;;9.80;99.90;;;;;;5071560;28;20243;-69
2023/12/10 03:56:05;;;;;;;16.37;3.40;;;9.70;99.90;;;;;;5071749;28;20185;-69
2023/12/10 03:58:31;;;;;;;19.40;3.60;;;9.70;99.90;;;;;;5071581;28;20166;-69
2023/12/10 04:00:56;;;;;;;14.27;3.60;;;9.70;99.90;;;;;;5070282;28;20950;-69
2023/12/10 04:03:22;;;;;;;10.73;5.30;;;9.60;99.90;;;;;;5071236;28;20235;-69
2023/12/10 04:05:47;;;;;;;9.00;2.43;;;9.60;99.90;;;;;;5071364;28;20167;-69
2023/12/10 04:08:13;;;;;;;9.27;2.73;;;9.50;99.90;;;;;;5070281;28;20190;-69
2023/12/10 04:10:38;;;;;;;9.30;2.60;;;9.50;99.90;;;;;;5070327;28;20194;-69
2023/12/10 04:13:04;;;;;;;20.70;4.30;;;9.50;99.90;;;;;;5068798;28;20654;-69
2023/12/10 04:15:29;;;;;;;12.37;5.07;;;9.50;99.90;;;;;;5070274;28;20189;-70
2023/12/10 04:17:55;;;;;;;16.40;4.10;;;9.50;99.90;;;;;;5070245;28;20208;-70
2023/12/10 04:20:21;;;;;;;10.30;3.33;;;9.50;99.90;;;;;;5070653;28;20660;-69
2023/12/10 04:22:46;;;;;;;11.10;3.07;;;9.50;99.90;;;;;;5070429;28;20245;-69
2023/12/10 04:25:12;;;;;;;18.73;3.77;;;9.40;99.90;;;;;;5070272;28;20414;-68
2023/12/10 04:27:37;;;;;;;12.90;3.00;;;9.40;99.90;;;;;;5074268;28;20676;-69
2023/12/10 04:30:04;;;;;;;16.90;3.40;;;9.40;99.90;;;;;;5074856;28;20188;-69
2023/12/10 04:32:31;;;;;;;11.00;4.50;;;9.40;99.90;;;;;;5074945;28;20167;-68
2023/12/10 04:34:56;;;;;;;16.47;3.80;;;9.50;99.90;;;;;;5075051;28;20488;-69
2023/12/10 04:37:22;;;;;;;20.00;3.03;;;9.50;99.90;;;;;;5075072;28;20404;-69
2023/12/10 04:39:48;;;;;;;17.27;3.27;;;9.50;99.90;;;;;;5074887;28;20172;-68
2023/12/10 04:42:14;;;;;;;10.53;2.63;;;9.50;99.90;;;;;;5074713;28;20523;-69
2023/12/10 04:44:39;;;;;;;13.90;3.53;;;9.50;99.90;;;;;;5074739;28;20190;-70
2023/12/10 04:47:06;;;;;;;8.00;2.37;;;9.50;99.90;;;;;;5074839;28;20170;-70
2023/12/10 04:49:31;;;;;;;15.40;3.77;;;9.50;99.90;;;;;;5074619;28;20178;-69
2023/12/10 04:51:57;;;;;;;12.80;5.03;;;9.60;99.90;;;;;;5074676;28;20424;-70
2023/12/10 04:54:22;;;;;;;25.67;3.60;;;9.60;99.90;;;;;;5073438;28;20190;-69
2023/12/10 04:56:48;;;;;;;11.60;4.30;;;9.70;99.90;;;;;;5074780;28;20162;-69
2023/12/10 04:59:13;;;;;;;10.10;3.90;;;9.70;99.90;;;;;;5074473;28;20192;-69
2023/12/10 05:01:39;;;;;;;14.03;3.70;;;9.80;99.90;;;;;;5074568;28;20193;-70
2023/12/10 05:04:04;;;;;;;16.23;3.30;;;9.80;99.90;;;;;;5074548;28;20263;-69
2023/12/10 05:06:31;;;;;;;19.67;4.13;;;9.90;99.90;;;;;;5073237;28;20652;-70
2023/12/10 05:08:56;;;;;;;12.53;3.10;;;9.90;99.90;;;;;;5072834;28;20173;-69
2023/12/10 05:11:22;;;;;;;10.40;3.10;;;10.00;99.90;;;;;;5074243;28;20429;-70
2023/12/10 05:13:48;;;;;;;9.37;3.00;;;10.00;99.90;;;;;;5072898;28;20209;-70
2023/12/10 05:16:14;;;;;;;16.30;3.03;;;10.10;99.90;;;;;;5074309;28;20174;-70
2023/12/10 05:18:39;;;;;;;11.93;2.67;;;10.10;99.90;;;;;;5074183;28;20408;-69
2023/12/10 05:21:05;;;;;;;24.73;3.83;;;10.10;99.90;;;;;;5074146;28;20190;-68
2023/12/10 05:23:31;;;;;;;13.70;2.90;;;10.10;99.90;;;;;;5074111;28;20190;-69
2023/12/10 05:25:56;;;;;;;15.57;4.07;;;10.10;99.90;;;;;;5074176;28;20253;-69
2023/12/10 05:28:22;;;;;;;8.80;2.43;;;10.10;99.90;;;;;;5073867;28;20640;-69
2023/12/10 05:30:47;;;;;;;7.70;2.73;;;10.10;99.90;;;;;;5074043;28;20186;-69
2023/12/10 05:33:13;;;;;;;9.33;3.20;;;10.10;99.90;;;;;;5072958;28;20202;-69
2023/12/10 05:35:38;;;;;;;11.10;3.03;;;10.10;99.90;;;;;;5074057;28;20174;-69
2023/12/10 05:38:06;;;;;;;12.83;2.90;;;10.20;99.90;;;;;;5073663;28;20224;-69
2023/12/10 05:40:31;;;;;;;13.27;3.10;;;10.20;99.90;;;;;;5073949;28;20182;-69
2023/12/10 05:42:57;;;;;;;6.70;2.97;;;10.20;99.90;;;;;;5073628;28;20408;-69
2023/12/10 05:45:23;;;;;;;13.93;3.20;;;10.20;99.90;;;;;;5073949;28;20166;-69
2023/12/10 05:47:48;;;;;;;11.57;3.10;;;10.20;99.90;;;;;;5073697;28;20158;-70
2023/12/10 05:50:14;;;;;;;13.83;3.20;;;10.20;99.90;;;;;;5073493;28;20637;-69
2023/12/10 05:52:40;;;;;;;11.20;2.80;;;10.20;99.90;;;;;;5073623;28;20190;-71
2023/12/10 05:55:06;;;;;;;14.93;3.47;;;10.20;99.90;;;;;;5073523;28;20512;-68
2023/12/10 05:57:31;;;;;;;15.00;3.73;;;10.30;99.90;;;;;;5073664;28;20240;-69
2023/12/10 05:59:57;;;;;;;15.43;3.97;;;10.20;99.90;;;;;;5073277;28;20404;-69
2023/12/10 06:02:23;;;;;;;15.00;3.10;;;10.20;99.90;;;;;;5073262;28;20174;-69
2023/12/10 06:04:48;;;;;;;11.67;3.60;;;10.20;99.90;;;;;;5073421;28;20247;-70
2023/12/10 06:07:14;;;;;;;16.30;3.10;;;10.20;99.90;;;;;;5073459;28;20170;-69
2023/12/10 06:09:39;;;;;;;11.90;2.90;;;10.30;99.90;;;;;;5073210;28;20584;-70
2023/12/10 06:12:05;;;;;;;13.73;3.53;;;10.20;99.90;;;;;;5073041;28;20240;-69
2023/12/10 06:14:31;;;;;;;7.10;2.53;;;10.30;99.90;;;;;;5073258;28;20170;-70
2023/12/10 06:16:56;;;;;;;13.50;3.40;;;10.20;99.90;;;;;;5073318;28;20775;-69
2023/12/10 06:19:22;;;;;;;16.00;3.03;;;10.20;99.90;;;;;;5073022;28;20253;-69
2023/12/10 06:21:47;;;;;;;12.23;2.60;;;10.20;99.90;;;;;;5072896;28;20708;-70
2023/12/10 06:24:13;;;;;;;7.10;2.40;;;10.20;99.90;;;;;;5072967;28;20198;-69
2023/12/10 06:26:38;;;;;;;14.53;3.10;;;10.20;99.90;;;;;;5072962;28;20162;-70
2023/12/10 06:29:04;;;;;;;8.90;3.60;;;10.20;99.90;;;;;;5072785;28;20227;-69
2023/12/10 06:31:30;;;;;;;10.83;3.03;;;10.20;99.90;;;;;;5072780;28;20301;-69
2023/12/10 06:33:55;;;;;;;11.17;3.47;;;10.20;99.90;;;;;;5072817;28;20630;-69
2023/12/10 06:36:21;;;;;;;14.20;3.57;;;10.30;99.90;;;;;;5072848;28;20633;-70
2023/12/10 06:38:46;;;;;;;11.30;2.63;;;10.20;99.90;;;;;;5072643;28;20653;-69
2023/12/10 06:41:12;;;;;;;7.67;2.70;;;10.20;99.90;;;;;;5072651;28;20692;-69
2023/12/10 06:43:37;;;;;;;17.53;4.10;;;10.20;99.90;;;;;;5072513;28;20657;-70
2023/12/10 06:46:03;;;;;;;21.40;3.63;;;10.20;99.90;;;;;;5072705;28;20734;-69
2023/12/10 06:48:28;;;;;;;9.47;2.90;;;10.20;99.90;;;;;;5071270;28;20735;-69
2023/12/10 06:50:54;;;;;;;18.47;3.10;;;10.30;99.90;;;;;;5072344;28;20221;-69
2023/12/10 06:53:20;;;;;;;13.40;3.93;;;10.30;99.90;;;;;;5072179;28;20645;-69
2023/12/10 06:55:46;;;;;;;14.63;3.67;;;10.30;99.90;;;;;;5072239;28;20537;-69
2023/12/10 06:58:11;;;;;;;7.10;2.47;;;10.30;99.90;;;;;;5070989;28;20166;-70
2023/12/10 07:00:37;;;;;;;5.10;2.37;;;10.30;99.90;;;;;;5072264;28;20428;-70
2023/12/10 07:03:03;;;;;;;19.77;5.27;;;10.30;99.90;;;;;;5070786;28;20200;-69
2023/12/10 07:05:28;;;;;;;17.30;2.90;;;10.30;99.90;;;;;;5072280;28;20712;-69
2023/12/10 07:07:54;;;;;;;12.90;2.70;;;10.30;99.90;;;;;;5072128;28;20166;-73
2023/12/10 07:10:19;;;;;;;8.63;2.60;;;10.40;99.90;;;;;;5071805;28;20217;-70
2023/12/10 07:12:46;;;;;;;10.03;2.70;;;10.30;99.90;;;;;;5072173;28;20177;-68
2023/12/10 07:15:11;;;;;;;17.70;4.43;;;10.30;99.90;;;;;;5072176;28;20158;-70
2023/12/10 07:17:37;;;;;;;14.70;3.23;;;10.40;99.90;;;;;;5072033;28;20776;-69
2023/12/10 07:20:04;;;;;;;19.50;2.90;;;10.40;99.90;;;;;;5070571;28;20235;-69
2023/12/10 07:22:29;;;;;;;19.47;3.43;;;10.30;99.90;;;;;;5071991;28;20679;-69
2023/12/10 07:24:55;;;;;;;15.40;3.47;;;10.40;99.90;;;;;;5071876;28;20487;-69
2023/12/10 07:27:21;;;;;;;10.93;2.33;;;10.30;99.90;;;;;;5071995;28;20579;-69
2023/12/10 07:29:46;;;;;;;13.17;3.33;;;10.40;99.90;;;;;;5071869;28;20404;-69
2023/12/10 07:32:12;;;;;;;15.40;3.77;;;10.40;99.90;;;;;;5071764;28;20190;-69
2023/12/10 07:34:37;;;;;;;5.97;3.20;;;10.40;99.90;;;;;;5071962;28;20200;-69
2023/12/10 07:37:03;;;;;;;7.43;2.10;;;10.40;99.90;;;;;;5071968;28;20178;-69
2023/12/10 07:39:29;;;;;;;13.50;2.90;;;10.40;99.90;;;;;;5071803;28;20178;-70
2023/12/10 07:41:54;;;;;;;16.83;3.70;;;10.40;99.90;;;;;;5070494;28;20440;-69
2023/12/10 07:44:20;;;;;;;11.13;2.63;;;10.50;99.90;;;;;;5071729;28;20198;-70
2023/12/10 07:46:45;;;;;;;12.17;2.63;;;10.50;99.90;;;;;;5071822;28;20173;-68
2023/12/10 07:49:11;;;;;;;11.33;2.43;;;10.50;99.90;;;;;;5071734;28;20173;-69
2023/12/10 07:51:36;;;;;;;7.80;2.20;;;10.40;99.90;;;;;;5071952;28;20178;-70
2023/12/10 07:54:02;;;;;;;8.60;2.63;;;10.40;99.90;;;;;;5071596;28;20269;-70
2023/12/10 07:56:28;;;;;;;9.50;3.37;;;10.40;99.90;;;;;;5071831;28;20178;-69
2023/12/10 07:58:53;;;;;;;17.80;2.87;;;10.50;99.90;;;;;;5071665;28;20169;-69
2023/12/10 08:01:19;;;;;;;14.47;2.97;;;10.50;99.90;;;;;;5072537;28;20193;-69
2023/12/10 08:03:44;;;;;;;15.50;2.73;;;10.60;99.90;;;;;;5075581;28;20198;-69
2023/12/10 08:06:10;;;;;;;12.17;3.10;;;10.50;99.90;;;;;;5074455;28;20181;-69
2023/12/10 08:08:35;;;;;;;11.23;2.60;;;10.50;99.90;;;;;;5075414;28;20163;-70
2023/12/10 08:11:03;;;;;;;18.57;3.30;;;10.50;99.90;;;;;;5075470;28;20556;-70
2023/12/10 08:13:29;;;;;;;10.57;2.60;;;10.60;99.90;;;;;;5075516;28;20587;-69
2023/12/10 08:15:54;;;;;;;7.13;3.20;;;10.50;99.90;;;;;;5075525;28;20404;-70
2023/12/10 08:18:20;;;;;;;13.50;4.80;;;10.50;99.90;;;;;;5075313;28;20803;-69
2023/12/10 08:20:45;;;;;;;8.20;2.07;;;10.50;99.90;;;;;;5074091;28;20668;-70
2023/12/10 08:23:11;;;;;;;17.67;3.70;;;10.50;99.90;;;;;;5075213;28;20248;-69
2023/12/10 08:25:36;;;;;;;15.97;2.23;;;10.50;99.90;;;;;;5074030;28;20713;-69
2023/12/10 08:28:02;;;;;;;4.63;2.67;;;10.60;99.90;;;;;;5075168;28;20173;-69
2023/12/10 08:30:28;;;;;;;10.33;3.70;;;10.60;99.90;;;;;;5075374;28;20272;-69
2023/12/10 08:32:53;;;;;;;7.30;1.90;;;10.60;99.90;;;;;;5075091;28;20154;-70
2023/12/10 08:35:19;;;;;;;6.77;2.90;;;10.60;99.90;;;;;;5075116;28;20231;-69
2023/12/10 08:37:44;;;;;;;11.10;4.33;;;10.50;99.90;;;;;;5074970;28;20171;-69
2023/12/10 08:40:10;;;;;;;14.43;2.70;;;10.60;99.90;;;;;;5073484;28;20166;-69
2023/12/10 08:42:36;;;;;;;3.77;1.77;;;10.60;99.90;;;;;;5074750;28;20166;-69
2023/12/10 08:45:01;;;;;;;11.17;2.13;;;10.60;99.90;;;;;;5074892;28;20225;-70
2023/12/10 08:47:27;;;;;;;13.33;3.90;;;10.60;99.90;;;;;;5074867;28;20241;-69
2023/12/10 08:49:52;;;;;;;6.37;2.13;;;10.70;99.90;;;;;;5074747;28;20167;-70
2023/12/10 08:52:18;;;;;;;22.80;3.83;;;10.80;99.90;;;;;;5074100;28;20657;-69
2023/12/10 08:54:44;;;;;;;8.80;3.10;;;10.80;99.90;;;;;;5072452;28;20190;-69
2023/12/10 08:57:09;;;;;;;8.47;2.20;;;10.90;99.90;;;;;;5072298;28;20174;-70
2023/12/10 08:59:35;;;;;;;9.60;2.67;;;11.00;99.90;;;;;;5073276;28;20239;-69
2023/12/10 09:02:00;;;;;;;10.20;2.83;;;11.00;99.90;;;;;;5072046;28;20204;-69
2023/12/10 09:04:26;;;;;;;10.57;4.00;;;11.20;99.90;;;;;;5072027;28;20194;-69
2023/12/10 09:06:52;;;;;;;7.60;2.50;;;11.40;99.90;;;;;;5073253;28;20174;-69
2023/12/10 09:09:17;;;;;;;17.73;3.83;;;11.50;99.90;;;;;;5072107;28;20499;-70
2023/12/10 09:11:43;;;;;;;10.00;2.20;;;11.50;99.90;;;;;;5073111;28;20186;-69
2023/12/10 09:14:11;;;;;;;7.13;2.27;;;11.50;99.90;;;;;;5073420;28;20633;-69
2023/12/10 09:16:37;;;;;;;10.10;3.37;;;11.40;99.90;;;;;;5072388;28;20220;-69
2023/12/10 09:19:03;;;;;;;21.60;2.80;;;11.30;99.90;;;;;;5073078;28;20442;-69
2023/12/10 09:21:29;;;;;;;16.27;2.77;;;11.20;99.90;;;;;;5073165;28;20429;-71
2023/12/10 09:23:54;;;;;;;9.00;3.13;;;11.10;99.90;;;;;;5072916;28;20198;-69
2023/12/10 09:26:20;;;;;;;9.40;2.87;;;11.10;99.90;;;;;;5071984;28;20170;-70
2023/12/10 09:28:45;;;;;;;14.20;2.43;;;11.10;99.90;;;;;;5071797;28;20595;-69
2023/12/10 09:31:11;;;;;;;8.67;3.37;;;11.20;99.90;;;;;;5072924;28;20617;-69
2023/12/10 09:33:36;;;;;;;14.03;3.20;;;11.30;99.90;;;;;;5072939;28;20174;-69
2023/12/10 09:36:02;;;;;;;15.03;2.03;;;11.60;99.90;;;;;;5072949;28;20174;-70
2023/12/10 09:38:28;;;;;;;6.63;2.37;;;12.10;99.90;;;;;;5071512;28;20521;-70
2023/12/10 09:40:53;;;;;;;13.03;2.30;;;12.80;99.90;;;;;;5072855;28;20226;-70
2023/12/10 09:43:19;;;;;;;9.63;2.40;;;13.10;99.90;;;;;;5072797;28;20553;-69
2023/12/10 09:45:45;;;;;;;8.77;2.40;;;13.50;99.90;;;;;;5072982;28;20174;-71
2023/12/10 09:48:11;;;;;;;10.30;2.63;;;13.70;99.90;;;;;;5072817;28;20170;-71
2023/12/10 09:50:38;;;;;;;8.17;3.07;;;13.70;99.90;;;;;;5072771;28;20186;-70
2023/12/10 09:53:05;;;;;;;8.93;3.20;;;13.70;99.90;;;;;;5035059;28;1068238;-70
2023/12/10 09:55:31;;;;;;;17.87;3.07;;;14.30;99.90;;;;;;5072385;28;20486;-71
2023/12/10 09:57:56;;;;;;;16.30;3.07;;;14.90;99.90;;;;;;5073334;28;20808;-71
2023/12/10 10:00:22;;;;;;;12.10;2.70;;;15.30;99.90;;;;;;5072374;28;20182;-69
2023/12/10 10:02:47;;;;;;;9.90;2.63;;;15.60;99.90;;;;;;5072139;28;20667;-69
2023/12/10 10:05:13;;;;;;;10.33;2.83;;;15.60;99.90;;;;;;5073184;28;20555;-69
2023/12/10 10:07:38;;;;;;;10.83;4.10;;;15.70;99.90;;;;;;5073486;28;20169;-70
2023/12/10 10:10:10;;;;;;;10.57;2.50;;;15.50;99.90;;;;;;5073157;28;20245;-69
2023/12/10 10:12:36;;;;;;;10.43;2.90;;;15.50;99.90;;;;;;5073363;28;20652;-69
2023/12/10 10:15:03;;;;;;;13.00;3.03;;;15.70;99.90;;;;;;5072087;28;20419;-69
2023/12/10 10:17:31;;;;;;;12.00;2.73;;;15.70;99.90;;;;;;5072978;28;20249;-70
2023/12/10 10:19:57;;;;;;;6.17;1.97;;;15.90;99.90;;;;;;5072872;28;20435;-70
2023/12/10 10:22:25;;;;;;;5.80;2.00;;;15.80;99.90;;;;;;5073062;28;20427;-69
2023/12/10 10:24:54;;;;;;;7.90;2.50;;;16.20;99.90;;;;;;5072342;28;20452;-69
2023/12/10 10:27:20;;;;;;;21.87;3.60;;;16.60;99.90;;;;;;5071796;28;20431;-69
2023/12/10 10:29:48;;;;;;;12.27;3.43;;;16.40;99.90;;;;;;5072793;28;20401;-69
2023/12/10 10:32:16;;;;;;;12.60;2.90;;;16.10;99.90;;;;;;5072786;28;20423;-69
2023/12/10 10:34:49;;;;;;;9.90;3.40;;;15.80;99.90;;;;;;5072812;28;20396;-69
2023/12/10 10:37:15;;;;;;;14.40;3.87;;;15.90;99.90;;;;;;5073002;28;20441;-69
2023/12/10 10:39:42;;;;;;;7.17;3.03;;;16.50;99.90;;;;;;5072648;28;20401;-69
2023/12/10 10:42:08;;;;;;;7.03;2.97;;;17.60;99.90;;;;;;5072651;28;20421;-70
2023/12/10 10:44:41;;;;;;;13.03;2.80;;;18.90;99.90;;;;;;5072705;28;20527;-70
2023/12/10 10:47:07;;;;;;;10.97;3.40;;;19.40;88.50;;;;;;5072682;28;20464;-70
2023/12/10 10:49:45;;;;;;;8.60;2.93;;;19.40;84.10;;;;;;5072071;28;20412;-69
2023/12/10 10:52:19;;;;;;;8.43;3.13;;;19.20;79.30;;;;;;5072485;28;20432;-69
2023/12/10 10:54:46;;;;;;;11.53;3.03;;;18.10;81.30;;;;;;5072399;28;20466;-69
2023/12/10 10:57:11;;;;;;;6.20;2.37;;;18.30;90.30;;;;;;5072485;28;20397;-70
2023/12/10 10:59:38;;;;;;;15.87;7.63;;;19.80;91.80;;;;;;5072257;28;20412;-69
2023/12/10 11:02:08;;;;;;;12.30;3.80;;;20.90;76.50;;;;;;5072335;28;20182;-71
2023/12/10 11:04:37;;;;;;;8.70;3.33;;;21.80;67.30;;;;;;5072279;28;20448;-70
2023/12/10 11:07:04;;;;;;;11.93;3.30;;;23.00;67.20;;;;;;5072363;28;20412;-70
2023/12/10 11:09:33;;;;;;;8.63;2.30;;;24.10;59.60;;;;;;5072116;28;20404;-70
2023/12/10 11:11:59;;;;;;;5.60;2.67;;;24.50;54.60;;;;;;5072211;28;20920;-71
2023/12/10 11:14:25;;;;;;;8.03;2.47;;;25.00;52.10;;;;;;5072225;28;20405;-70
2023/12/10 11:17:04;;;;;;;8.37;2.13;;;24.70;49.50;;;;;;5072182;28;20179;-70
2023/12/10 11:19:32;;;;;;;12.73;3.90;;;24.90;49.80;;;;;;5072148;28;20898;-71
2023/12/10 11:21:59;;;;;;;9.90;3.30;;;26.20;50.40;;;;;;5070741;28;20447;-71
2023/12/10 11:24:24;;;;;;;6.70;2.87;;;27.00;47.20;;;;;;5072143;28;20448;-71
2023/12/10 11:26:50;;;;;;;4.03;3.63;;;27.20;45.00;;;;;;5072123;28;20400;-71
2023/12/10 11:29:16;;;;;;;9.77;4.40;;;27.60;44.60;;;;;;5071983;28;20192;-70
2023/12/10 11:31:44;;;;;;;12.43;4.03;;;27.80;42.50;;;;;;5071902;28;20947;-71
2023/12/10 11:34:11;;;;;;;8.63;3.23;;;26.60;41.40;;;;;;5071956;28;20169;-72
2023/12/10 11:36:37;;;;;;;13.60;3.97;;;25.40;42.50;;;;;;5071857;28;20408;-71
2023/12/10 11:39:02;;;;;;;7.23;3.27;;;23.10;43.80;;;;;;5071738;28;20458;-71
2023/12/10 11:41:28;;;;;;;8.50;2.57;;;21.40;45.80;;;;;;5062063;28;20460;-72
2023/12/10 11:43:54;;;;;;;7.20;2.70;;;19.40;48.10;;;;;;5060916;28;20687;-70
2023/12/10 11:46:23;;;;;;;7.13;2.53;;;17.80;51.40;;;;;;5063944;28;20193;-69
2023/12/10 11:48:53;;;;;;;10.07;2.60;;;16.80;55.00;;;;;;5069901;28;20182;-70
2023/12/10 11:51:19;;;;;;;8.47;2.40;;;16.20;59.10;;;;;;5071897;28;20931;-69
2023/12/10 11:53:46;;;;;;;10.97;3.10;;;15.90;68.20;;;;;;5071453;28;20436;-70
2023/12/10 11:56:11;;;;;;;11.20;3.27;;;15.80;82.60;;;;;;5071689;28;20174;-70
2023/12/10 11:58:37;;;;;;;12.83;3.17;;;15.60;91.60;;;;;;5071553;28;20412;-69
2023/12/10 12:01:03;;;;;;;13.63;3.50;;;15.60;96.00;;;;;;5071650;28;20186;-70
2023/12/10 12:03:33;;;;;;;6.63;2.20;;;16.40;98.30;;;;;;5071794;28;20664;-70
2023/12/10 12:05:59;;;;;;;8.90;2.77;;;16.60;94.60;;;;;;5071690;28;20464;-69
2023/12/10 12:08:27;;;;;;;13.60;3.03;;;16.20;94.80;;;;;;5071340;28;20403;-70
2023/12/10 12:10:53;;;;;;;17.47;3.00;;;16.00;96.30;;;;;;5071495;28;20515;-70
2023/12/10 12:13:19;;;;;;;9.37;3.27;;;15.70;98.10;;;;;;5071437;28;20408;-71
2023/12/10 12:15:49;;;;;;;14.20;3.33;;;15.30;99.20;;;;;;5070202;28;20425;-71
2023/12/10 12:18:15;;;;;;;10.17;3.10;;;14.90;99.90;;;;;;5071425;28;20190;-70
2023/12/10 12:20:40;;;;;;;10.60;3.40;;;14.60;99.90;;;;;;5071465;28;20470;-69
2023/12/10 12:23:06;;;;;;;10.90;4.50;;;14.30;99.90;;;;;;5071319;28;20244;-69
2023/12/10 12:25:35;;;;;;;12.97;2.90;;;14.00;99.90;;;;;;5071535;28;20162;-69
2023/12/10 12:28:01;;;;;;;21.90;3.73;;;13.80;99.90;;;;;;5071314;28;20245;-70
2023/12/10 12:30:27;;;;;;;9.80;3.33;;;13.80;99.90;;;;;;5071376;28;20417;-70
2023/12/10 12:32:53;;;;;;;11.93;3.50;;;13.60;99.90;;;;;;5071288;28;20914;-69
2023/12/10 12:35:18;;;;;;;16.47;3.67;;;13.50;99.90;;;;;;5071407;28;20162;-69